createdAt,value
2022-11-17T00:00:23.396Z,16.55
2022-11-17T00:03:06.619Z,13.82
2022-11-17T00:06:03.240Z,15.90
2022-11-17T00:08:49.043Z,19.48
2022-11-17T00:11:54.692Z,20.00
2022-11-17T00:14:40.181Z,16.88
2022-11-17T00:17:44.574Z,12.93
2022-11-17T00:20:40.777Z,19.23
2022-11-17T00:23:21.418Z,16.02
2022-11-17T00:26:01.976Z,19.52
2022-11-17T00:28:50.507Z,16.48
2022-11-17T00:31:47.663Z,20.33
2022-11-17T00:34:25.861Z,15.27
2022-11-17T00:36:59.878Z,16.42
2022-11-17T00:42:26.980Z,15.38
2022-11-17T00:44:59.700Z,20.67
2022-11-17T00:47:57.620Z,19.35
2022-11-17T00:50:33.778Z,17.17
2022-11-17T00:53:10.247Z,16.00
2022-11-17T00:55:54.146Z,20.23
2022-11-17T00:58:48.704Z,19.58
2022-11-17T01:01:35.027Z,19.98
2022-11-17T01:04:25.499Z,11.90
2022-11-17T01:07:08.612Z,19.95
2022-11-17T01:09:47.219Z,15.48
2022-11-17T01:12:18.791Z,19.63
2022-11-17T01:14:57.942Z,18.73
2022-11-17T01:17:31.819Z,17.67
2022-11-17T01:20:21.092Z,19.27
2022-11-17T01:23:08.799Z,20.63
2022-11-17T01:25:46.289Z,16.17
2022-11-17T01:28:22.058Z,15.65
2022-11-17T01:31:02.961Z,15.27
2022-11-17T01:33:32.779Z,16.38
2022-11-17T01:36:11.665Z,16.55
2022-11-17T01:38:42.504Z,15.35
2022-11-17T01:41:40.554Z,23.70
2022-11-17T01:44:56.757Z,18.45
2022-11-17T01:47:58.061Z,19.42
2022-11-17T01:50:59.698Z,17.40
2022-11-17T01:53:43.037Z,16.90
2022-11-17T01:56:19.717Z,16.45
2022-11-17T01:59:13.178Z,17.38
2022-11-17T02:02:06.559Z,14.25
2022-11-17T02:05:03.576Z,18.02
2022-11-17T02:08:09.197Z,21.80
2022-11-17T02:10:56.325Z,15.05
2022-11-17T02:13:41.567Z,17.55
2022-11-17T02:19:25.818Z,15.25
2022-11-17T02:22:45.253Z,18.45
2022-11-17T02:29:12.925Z,16.75
2022-11-17T02:32:10.260Z,15.35
2022-11-17T02:35:01.558Z,14.35
2022-11-17T02:38:15.974Z,15.68
2022-11-17T02:40:54.203Z,14.87
2022-11-17T02:43:57.485Z,21.00
2022-11-17T02:46:44.189Z,18.85
2022-11-17T02:49:27.911Z,20.40
2022-11-17T02:52:24.148Z,17.42
2022-11-17T02:55:10.189Z,17.52
2022-11-17T02:57:47.066Z,20.02
2022-11-17T03:00:24.605Z,18.17
2022-11-17T03:03:31.470Z,15.35
2022-11-17T03:06:28.285Z,14.52
2022-11-17T03:09:21.950Z,16.70
2022-11-17T03:12:23.172Z,14.40
2022-11-17T03:15:05.860Z,19.95
2022-11-17T03:17:50.950Z,16.92
2022-11-17T03:20:47.121Z,19.73
2022-11-17T03:23:23.865Z,18.48
2022-11-17T03:29:20.085Z,18.33
2022-11-17T03:31:57.223Z,14.70
2022-11-17T03:37:47.868Z,16.15
2022-11-17T03:40:29.029Z,14.98
2022-11-17T03:43:22.378Z,14.90
2022-11-17T03:46:09.357Z,15.98
2022-11-17T03:49:15.885Z,15.90
2022-11-17T03:52:00.381Z,14.73
2022-11-17T03:54:46.315Z,18.30
2022-11-17T04:00:49.028Z,15.35
2022-11-17T04:03:34.698Z,21.20
2022-11-17T04:06:13.289Z,15.93
2022-11-17T04:09:03.255Z,17.20
2022-11-17T04:11:53.438Z,16.85
2022-11-17T04:14:56.564Z,19.30
2022-11-17T04:17:32.204Z,15.98
2022-11-17T04:20:04.375Z,14.50
2022-11-17T04:23:07.562Z,15.70
2022-11-17T04:26:13.047Z,16.33
2022-11-17T04:28:59.698Z,17.58
2022-11-17T04:31:40.239Z,17.58
2022-11-17T04:34:28.130Z,14.68
2022-11-17T04:37:08.279Z,19.48
2022-11-17T04:39:46.901Z,13.45
2022-11-17T04:42:27.348Z,12.73
2022-11-17T04:45:20.733Z,18.48
2022-11-17T04:48:10.217Z,14.68
2022-11-17T04:51:05.106Z,16.00
2022-11-17T04:54:01.228Z,11.70
2022-11-17T04:56:53.399Z,9.43
2022-11-17T04:59:48.611Z,14.75
2022-11-17T05:02:22.917Z,15.13
2022-11-17T05:05:13.045Z,14.45
2022-11-17T05:08:00.202Z,13.70
2022-11-17T05:10:54.887Z,12.18
2022-11-17T05:16:41.647Z,10.57
2022-11-17T05:19:19.540Z,9.68
2022-11-17T05:21:55.799Z,10.93
2022-11-17T05:24:29.151Z,12.57
2022-11-17T05:27:04.503Z,15.57
2022-11-17T05:29:41.115Z,12.77
2022-11-17T05:32:18.819Z,10.65
2022-11-17T05:35:05.060Z,11.85
2022-11-17T05:37:49.258Z,13.65
2022-11-17T05:40:37.385Z,12.13
2022-11-17T05:43:16.763Z,12.75
2022-11-17T05:46:02.392Z,13.50
2022-11-17T05:48:47.708Z,11.82
2022-11-17T05:51:37.509Z,12.75
2022-11-17T05:54:17.854Z,13.60
2022-11-17T05:57:03.418Z,12.27
2022-11-17T06:00:20.370Z,13.60
2022-11-17T06:03:03.887Z,13.77
2022-11-17T06:05:59.220Z,14.20
2022-11-17T06:09:12.694Z,13.70
2022-11-17T06:11:49.025Z,12.05
2022-11-17T06:14:34.155Z,12.73
2022-11-17T06:17:25.059Z,14.85
2022-11-17T06:20:07.938Z,14.90
2022-11-17T06:22:48.507Z,11.60
2022-11-17T06:25:39.033Z,13.38
2022-11-17T06:28:21.297Z,12.77
2022-11-17T06:30:58.571Z,12.50
2022-11-17T06:33:40.612Z,14.20
2022-11-17T06:36:28.496Z,13.75
2022-11-17T06:39:03.281Z,17.23
2022-11-17T06:42:02.869Z,18.70
2022-11-17T06:44:48.441Z,15.55
2022-11-17T06:47:34.542Z,14.13
2022-11-17T06:50:11.085Z,16.25
2022-11-17T06:52:56.698Z,14.98
2022-11-17T06:55:31.248Z,13.10
2022-11-17T06:58:22.926Z,18.33
2022-11-17T07:00:53.824Z,12.95
2022-11-17T07:03:44.968Z,16.45
2022-11-17T07:06:30.122Z,18.10
2022-11-17T07:09:06.897Z,17.83
2022-11-17T07:11:56.684Z,21.10
2022-11-17T07:14:47.429Z,16.25
2022-11-17T07:17:22.693Z,19.55
2022-11-17T07:19:57.600Z,17.95
2022-11-17T07:22:50.969Z,18.88
2022-11-17T07:25:27.036Z,15.35
2022-11-17T07:28:14.895Z,15.88
2022-11-17T07:31:05.715Z,16.58
2022-11-17T07:33:43.204Z,20.92
2022-11-17T07:36:32.518Z,18.95
2022-11-17T07:39:31.023Z,24.48
2022-11-17T07:44:56.325Z,16.42
2022-11-17T07:47:30.473Z,16.67
2022-11-17T07:52:58.948Z,14.00
2022-11-17T07:55:40.447Z,14.60
2022-11-17T07:58:18.808Z,14.10
2022-11-17T08:00:56.505Z,14.52
2022-11-17T08:03:43.701Z,13.70
2022-11-17T08:06:21.054Z,15.55
2022-11-17T08:09:00.136Z,17.02
2022-11-17T08:11:42.114Z,13.43
2022-11-17T08:14:32.684Z,10.25
2022-11-17T08:17:23.498Z,10.07
2022-11-17T08:20:08.955Z,12.77
2022-11-17T08:22:38.311Z,10.75
2022-11-17T08:25:35.802Z,9.95
2022-11-17T08:28:34.534Z,11.57
2022-11-17T08:31:10.452Z,13.85
2022-11-17T08:33:50.706Z,10.27
2022-11-17T08:36:32.791Z,13.02
2022-11-17T08:39:15.392Z,11.30
2022-11-17T08:41:57.636Z,11.18
2022-11-17T08:44:31.552Z,12.70
2022-11-17T08:47:04.192Z,12.52
2022-11-17T08:49:56.039Z,10.23
2022-11-17T08:52:39.180Z,11.77
2022-11-17T08:55:13.034Z,10.32
2022-11-17T08:58:16.528Z,11.88
2022-11-17T09:01:18.620Z,8.73
2022-11-17T09:04:15.369Z,9.60
2022-11-17T09:07:03.444Z,7.97
2022-11-17T09:09:51.478Z,10.07
2022-11-17T09:12:37.972Z,8.50
2022-11-17T09:15:15.664Z,10.85
2022-11-17T09:17:49.314Z,7.97
2022-11-17T09:20:50.122Z,8.27
2022-11-17T09:23:44.909Z,11.63
2022-11-17T09:26:45.019Z,9.93
2022-11-17T09:29:35.168Z,7.25
2022-11-17T09:32:34.393Z,7.72
2022-11-17T09:35:33.845Z,7.97
2022-11-17T09:38:36.296Z,5.22
2022-11-17T09:41:41.358Z,8.77
2022-11-17T09:44:50.487Z,5.88
2022-11-17T09:47:46.479Z,6.30
2022-11-17T09:50:51.656Z,7.28
2022-11-17T09:54:16.557Z,19.13
2022-11-17T10:00:24.064Z,6.97
2022-11-17T10:02:59.277Z,6.18
2022-11-17T10:08:39.729Z,6.25
2022-11-17T10:11:53.532Z,8.18
2022-11-17T10:14:51.822Z,5.63
2022-11-17T10:17:39.955Z,6.20
2022-11-17T10:20:36.429Z,4.63
2022-11-17T10:23:20.984Z,4.93
2022-11-17T10:26:18.413Z,5.13
2022-11-17T10:32:29.351Z,4.97
2022-11-17T10:35:37.870Z,6.85
2022-11-17T10:38:38.573Z,10.38
2022-11-17T10:41:33.241Z,8.95
2022-11-17T10:44:29.910Z,6.68
2022-11-17T10:48:23.402Z,8.32
2022-11-17T10:51:17.878Z,5.05
2022-11-17T10:54:09.487Z,4.90
2022-11-17T10:56:55.784Z,4.65
2022-11-17T11:00:08.584Z,3.90
2022-11-17T11:02:48.876Z,5.78
2022-11-17T11:05:55.419Z,4.32
2022-11-17T11:08:43.497Z,3.50
2022-11-17T11:11:54.371Z,6.53
2022-11-17T11:14:57.119Z,3.45
2022-11-17T11:18:01.524Z,6.03
2022-11-17T11:21:19.791Z,4.00
2022-11-17T11:24:20.922Z,2.63
2022-11-17T11:27:21.397Z,3.05
2022-11-17T11:30:05.498Z,4.30
2022-11-17T11:32:57.268Z,1.70
2022-11-17T11:36:03.821Z,2.05
2022-11-17T11:39:08.381Z,2.95
2022-11-17T11:42:11.083Z,2.95
2022-11-17T11:45:52.735Z,1.98
2022-11-17T11:51:33.104Z,3.90
2022-11-17T11:54:49.380Z,2.00
2022-11-17T12:01:07.504Z,2.88
2022-11-17T12:04:46.733Z,2.13
2022-11-17T12:07:35.824Z,1.40
2022-11-17T12:10:52.143Z,4.07
2022-11-17T12:13:24.817Z,2.08
2022-11-17T12:16:34.572Z,2.15
2022-11-17T12:19:47.950Z,4.07
2022-11-17T12:22:46.632Z,1.98
2022-11-17T12:25:34.353Z,2.60
2022-11-17T12:28:40.933Z,2.20
2022-11-17T12:31:49.405Z,2.78
2022-11-17T12:34:37.305Z,2.60
2022-11-17T12:37:34.586Z,1.67
2022-11-17T12:40:32.528Z,3.03
2022-11-17T12:43:30.407Z,1.90
2022-11-17T12:46:49.473Z,3.08
2022-11-17T12:49:43.988Z,4.90
2022-11-17T12:52:32.003Z,1.50
2022-11-17T12:58:50.274Z,2.75
2022-11-17T13:01:50.409Z,1.67
2022-11-17T13:04:33.800Z,1.92
2022-11-17T13:07:21.141Z,2.55
2022-11-17T13:10:08.602Z,1.85
2022-11-17T13:12:47.965Z,2.40
2022-11-17T13:15:53.006Z,1.83
2022-11-17T13:21:57.087Z,1.05
2022-11-17T13:25:03.663Z,0.43
2022-11-17T13:27:54.953Z,0.40
2022-11-17T13:30:38.967Z,0.30
2022-11-17T13:33:39.568Z,0.32
2022-11-17T13:36:26.299Z,1.02
2022-11-17T13:42:10.861Z,0.70
2022-11-17T13:44:50.136Z,0.65
2022-11-17T13:47:33.422Z,1.20
2022-11-17T13:50:46.319Z,1.85
2022-11-17T13:53:27.935Z,1.10
2022-11-17T13:56:34.713Z,1.10
2022-11-17T13:59:08.298Z,0.88
2022-11-17T14:01:47.400Z,1.55
2022-11-17T14:04:31.422Z,1.13
2022-11-17T14:07:07.767Z,1.27
2022-11-17T14:09:52.556Z,2.35
2022-11-17T14:12:23.582Z,1.45
2022-11-17T14:15:17.012Z,1.48
2022-11-17T14:18:02.763Z,0.80
2022-11-17T14:20:45.680Z,0.50
2022-11-17T14:23:25.346Z,2.70
2022-11-17T14:26:15.009Z,1.10
2022-11-17T14:29:06.412Z,0.32
2022-11-17T14:31:46.251Z,1.00
2022-11-17T14:34:31.773Z,0.75
2022-11-17T14:37:17.206Z,1.95
2022-11-17T14:39:56.385Z,1.27
2022-11-17T14:43:07.570Z,0.60
2022-11-17T14:45:48.941Z,0.50
2022-11-17T14:48:34.229Z,1.55
2022-11-17T14:51:22.875Z,2.70
2022-11-17T14:53:58.211Z,1.38
2022-11-17T14:56:45.523Z,0.60
2022-11-17T14:59:33.653Z,0.82
2022-11-17T15:02:35.911Z,0.95
2022-11-17T15:05:27.705Z,3.72
2022-11-17T15:08:19.576Z,0.93
2022-11-17T15:11:06.142Z,0.82
2022-11-17T15:14:05.977Z,0.60
2022-11-17T15:16:56.718Z,2.55
2022-11-17T15:19:56.443Z,1.13
2022-11-17T15:22:39.292Z,1.10
2022-11-17T15:25:22.099Z,3.10
2022-11-17T15:27:56.805Z,0.90
2022-11-17T15:30:49.828Z,1.48
2022-11-17T15:33:55.342Z,0.68
2022-11-17T15:36:32.982Z,1.25
2022-11-17T15:39:07.551Z,1.15
2022-11-17T15:42:01.781Z,0.90
2022-11-17T15:44:46.144Z,1.60
2022-11-17T15:50:00.376Z,0.95
2022-11-17T15:53:10.381Z,2.90
2022-11-17T15:55:54.112Z,1.10
2022-11-17T15:58:34.802Z,2.15
2022-11-17T16:01:21.625Z,2.40
2022-11-17T16:04:09.864Z,2.85
2022-11-17T16:06:45.791Z,2.58
2022-11-17T16:09:21.218Z,1.63
2022-11-17T16:12:03.414Z,3.28
2022-11-17T16:15:08.567Z,3.08
2022-11-17T16:23:13.844Z,1.15
2022-11-17T16:25:52.517Z,1.80
2022-11-17T16:28:37.192Z,1.30
2022-11-17T16:31:44.166Z,1.73
2022-11-17T16:34:39.673Z,4.03
2022-11-17T16:37:15.372Z,7.85
2022-11-17T16:39:55.372Z,9.35
2022-11-17T16:42:34.657Z,9.25
2022-11-17T16:45:13.009Z,7.57
2022-11-17T16:47:58.060Z,6.50
2022-11-17T16:50:44.445Z,5.80
2022-11-17T16:53:22.979Z,5.10
2022-11-17T16:56:03.111Z,7.82
2022-11-17T16:58:50.637Z,4.30
2022-11-17T17:01:27.823Z,7.55
2022-11-17T17:04:12.698Z,3.63
2022-11-17T17:06:55.669Z,4.78
2022-11-17T17:09:37.834Z,6.93
2022-11-17T17:15:55.636Z,4.05
2022-11-17T17:18:52.333Z,9.02
2022-11-17T17:21:44.407Z,4.35
2022-11-17T17:24:28.403Z,7.30
2022-11-17T17:26:57.654Z,5.15
2022-11-17T17:29:28.229Z,5.28
2022-11-17T17:32:25.931Z,5.57
2022-11-17T17:35:01.689Z,5.00
2022-11-17T17:37:53.149Z,4.53
2022-11-17T17:41:01.088Z,3.15
2022-11-17T17:43:39.833Z,4.15
2022-11-17T17:46:29.240Z,5.93
2022-11-17T17:49:12.655Z,4.40
2022-11-17T17:51:52.525Z,3.63
2022-11-17T17:54:30.844Z,3.03
2022-11-17T17:57:12.170Z,2.83
2022-11-17T17:59:48.306Z,3.63
2022-11-17T18:02:41.524Z,4.70
2022-11-17T18:05:17.280Z,5.35
2022-11-17T18:08:13.165Z,2.83
2022-11-17T18:10:54.674Z,3.38
2022-11-17T18:13:35.037Z,7.18
2022-11-17T18:16:21.079Z,3.63
2022-11-17T18:18:57.244Z,4.57
2022-11-17T18:21:33.558Z,4.13
2022-11-17T18:24:13.861Z,4.30
2022-11-17T18:26:49.810Z,4.90
2022-11-17T18:29:32.255Z,4.72
2022-11-17T18:32:05.451Z,3.95
2022-11-17T18:35:06.145Z,3.33
2022-11-17T18:37:44.084Z,4.70
2022-11-17T18:40:27.160Z,10.93
2022-11-17T18:50:01.186Z,6.10
2022-11-17T18:52:51.971Z,3.72
2022-11-17T18:55:30.100Z,4.18
2022-11-17T18:58:18.010Z,4.65
2022-11-17T19:00:58.714Z,3.72
2022-11-17T19:03:38.495Z,6.85
2022-11-17T19:06:25.634Z,4.30
2022-11-17T19:09:05.171Z,2.55
2022-11-17T19:11:47.437Z,6.68
2022-11-17T19:14:44.177Z,5.78
2022-11-17T19:17:23.275Z,4.38
2022-11-17T19:20:01.323Z,6.63
2022-11-17T19:22:44.088Z,3.35
2022-11-17T19:25:24.903Z,3.80
2022-11-17T19:28:15.594Z,8.35
2022-11-17T19:31:00.772Z,6.13
2022-11-17T19:33:54.514Z,7.97
2022-11-17T19:36:46.632Z,10.38
2022-11-17T19:39:34.341Z,8.10
2022-11-17T19:42:33.838Z,7.63
2022-11-17T19:45:42.001Z,5.50
2022-11-17T19:48:43.465Z,6.50
2022-11-17T19:51:25.799Z,9.80
2022-11-17T19:54:14.170Z,9.48
2022-11-17T19:56:43.083Z,5.97
2022-11-17T19:59:16.437Z,10.25
2022-11-17T20:01:46.111Z,5.60
2022-11-17T20:04:14.605Z,6.82
2022-11-17T20:06:43.076Z,3.95
2022-11-17T20:09:15.703Z,7.75
2022-11-17T20:11:46.163Z,7.07
2022-11-17T20:14:16.237Z,4.18
2022-11-17T20:16:45.028Z,5.25
2022-11-17T20:19:14.024Z,3.65
2022-11-17T20:21:42.938Z,3.70
2022-11-17T20:24:11.368Z,4.85
2022-11-17T20:26:41.300Z,5.07
2022-11-17T20:29:10.754Z,9.52
2022-11-17T20:31:40.529Z,3.15
2022-11-17T20:34:08.915Z,5.55
2022-11-17T20:36:37.216Z,4.78
2022-11-17T20:39:07.747Z,5.82
2022-11-17T20:41:36.680Z,6.15
2022-11-17T20:44:05.596Z,4.50
2022-11-17T20:46:34.203Z,5.68
2022-11-17T20:49:06.967Z,3.80
2022-11-17T20:51:35.341Z,6.32
2022-11-17T20:54:04.273Z,5.47
2022-11-17T20:56:33.027Z,6.28
2022-11-17T20:59:01.969Z,4.07
2022-11-17T21:01:30.754Z,5.18
2022-11-17T21:03:59.754Z,5.15
2022-11-17T21:06:30.830Z,4.38
2022-11-17T21:09:00.095Z,7.70
2022-11-17T21:11:46.420Z,7.28
2022-11-17T21:14:17.036Z,7.80
2022-11-17T21:16:47.410Z,4.15
2022-11-17T21:19:16.186Z,4.90
2022-11-17T21:21:48.063Z,4.90
2022-11-17T21:24:17.409Z,5.57
2022-11-17T21:26:46.221Z,4.32
2022-11-17T21:29:15.799Z,4.05
2022-11-17T21:31:45.516Z,7.10
2022-11-17T21:34:17.522Z,7.43
2022-11-17T21:36:47.329Z,6.93
2022-11-17T21:39:18.768Z,5.38
2022-11-17T21:41:48.797Z,5.18
2022-11-17T21:44:17.433Z,3.92
2022-11-17T21:46:45.842Z,3.92
2022-11-17T21:49:14.741Z,3.30
2022-11-17T21:51:44.250Z,3.35
2022-11-17T21:54:14.050Z,4.22
2022-11-17T21:56:42.552Z,3.22
2022-11-17T21:59:13.533Z,2.78
2022-11-17T22:01:42.188Z,3.30
2022-11-17T22:04:12.499Z,2.92
2022-11-17T22:06:43.350Z,2.97
2022-11-17T22:09:11.859Z,2.75
2022-11-17T22:11:41.835Z,2.30
2022-11-17T22:14:12.783Z,3.75
2022-11-17T22:16:42.799Z,4.05
2022-11-17T22:19:12.255Z,2.50
2022-11-17T22:21:41.555Z,3.33
2022-11-17T22:24:11.550Z,3.70
2022-11-17T22:26:43.708Z,3.53
2022-11-17T22:29:13.989Z,3.47
2022-11-17T22:31:43.307Z,3.80
2022-11-17T22:34:12.024Z,1.98
2022-11-17T22:36:40.470Z,2.33
2022-11-17T22:39:09.560Z,5.93
2022-11-17T22:41:38.838Z,2.30
2022-11-17T22:44:08.548Z,3.10
2022-11-17T22:46:37.168Z,3.75
2022-11-17T22:49:05.643Z,3.20
2022-11-17T22:51:51.202Z,4.07
2022-11-17T22:54:19.641Z,2.47
2022-11-17T22:56:47.837Z,4.60
2022-11-17T22:59:18.039Z,4.95
2022-11-17T23:01:47.329Z,5.15
2022-11-17T23:04:16.632Z,3.67
2022-11-17T23:06:45.391Z,5.72
2022-11-17T23:09:14.659Z,1.45
2022-11-17T23:11:43.597Z,2.35
2022-11-17T23:14:14.453Z,3.35
2022-11-17T23:16:44.504Z,4.05
2022-11-17T23:19:16.295Z,4.22
2022-11-17T23:21:45.497Z,3.97
2022-11-17T23:24:14.908Z,2.72
2022-11-17T23:26:44.071Z,3.88
2022-11-17T23:29:14.682Z,4.40
2022-11-17T23:31:44.989Z,10.50
2022-11-17T23:34:13.550Z,4.72
2022-11-17T23:36:42.103Z,4.63
2022-11-17T23:39:10.757Z,1.52
2022-11-17T23:41:39.071Z,2.85
2022-11-17T23:44:07.747Z,1.70
2022-11-17T23:46:36.307Z,3.05
2022-11-17T23:49:06.330Z,1.63
2022-11-17T23:51:35.067Z,1.23
2022-11-17T23:54:03.634Z,1.50
2022-11-17T23:56:34.043Z,1.98
2022-11-17T23:59:02.714Z,2.40
